sensor_id;sensor_type;location;lat;lon;timestamp;P1;durP1;ratioP1;P2;durP2;ratioP2
70433;SDS011;57876;47.792;12.960;2022-07-22T00:00:25;14.97;;;8.80;;
70433;SDS011;57876;47.792;12.960;2022-07-22T00:02:50;15.57;;;8.23;;
70433;SDS011;57876;47.792;12.960;2022-07-22T00:05:14;14.30;;;8.77;;
70433;SDS011;57876;47.792;12.960;2022-07-22T00:07:39;14.85;;;8.77;;
70433;SDS011;57876;47.792;12.960;2022-07-22T00:10:04;14.70;;;8.63;;
70433;SDS011;57876;47.792;12.960;2022-07-22T00:12:31;15.52;;;8.85;;
70433;SDS011;57876;47.792;12.960;2022-07-22T00:14:55;13.77;;;8.47;;
70433;SDS011;57876;47.792;12.960;2022-07-22T00:17:19;14.83;;;8.97;;
70433;SDS011;57876;47.792;12.960;2022-07-22T00:19:44;15.98;;;9.32;;
70433;SDS011;57876;47.792;12.960;2022-07-22T00:22:08;13.83;;;8.33;;
70433;SDS011;57876;47.792;12.960;2022-07-22T00:24:33;15.67;;;8.77;;
70433;SDS011;57876;47.792;12.960;2022-07-22T00:26:57;15.45;;;8.77;;
70433;SDS011;57876;47.792;12.960;2022-07-22T00:29:22;14.63;;;8.50;;
70433;SDS011;57876;47.792;12.960;2022-07-22T00:31:47;14.27;;;8.57;;
70433;SDS011;57876;47.792;12.960;2022-07-22T00:34:11;15.05;;;8.93;;
70433;SDS011;57876;47.792;12.960;2022-07-22T00:36:36;15.57;;;8.93;;
70433;SDS011;57876;47.792;12.960;2022-07-22T00:39:00;14.80;;;8.57;;
70433;SDS011;57876;47.792;12.960;2022-07-22T00:41:25;13.83;;;8.47;;
70433;SDS011;57876;47.792;12.960;2022-07-22T00:46:23;14.87;;;8.47;;
70433;SDS011;57876;47.792;12.960;2022-07-22T00:48:48;15.13;;;9.02;;
70433;SDS011;57876;47.792;12.960;2022-07-22T00:51:14;14.18;;;8.38;;
70433;SDS011;57876;47.792;12.960;2022-07-22T00:53:39;14.93;;;8.43;;
70433;SDS011;57876;47.792;12.960;2022-07-22T00:56:04;14.90;;;8.67;;
70433;SDS011;57876;47.792;12.960;2022-07-22T00:58:29;14.95;;;8.50;;
70433;SDS011;57876;47.792;12.960;2022-07-22T01:00:53;13.47;;;7.93;;
70433;SDS011;57876;47.792;12.960;2022-07-22T01:03:18;14.30;;;8.18;;
70433;SDS011;57876;47.792;12.960;2022-07-22T01:05:42;13.93;;;8.40;;
70433;SDS011;57876;47.792;12.960;2022-07-22T01:08:07;13.40;;;8.00;;
70433;SDS011;57876;47.792;12.960;2022-07-22T01:10:32;14.70;;;8.40;;
70433;SDS011;57876;47.792;12.960;2022-07-22T01:12:56;12.77;;;7.97;;
70433;SDS011;57876;47.792;12.960;2022-07-22T01:15:20;13.90;;;8.37;;
70433;SDS011;57876;47.792;12.960;2022-07-22T01:17:45;13.50;;;7.97;;
70433;SDS011;57876;47.792;12.960;2022-07-22T01:20:09;13.63;;;8.10;;
70433;SDS011;57876;47.792;12.960;2022-07-22T01:22:34;13.73;;;8.20;;
70433;SDS011;57876;47.792;12.960;2022-07-22T01:24:58;13.70;;;7.93;;
70433;SDS011;57876;47.792;12.960;2022-07-22T01:27:23;12.87;;;7.67;;
70433;SDS011;57876;47.792;12.960;2022-07-22T01:29:47;13.93;;;7.35;;
70433;SDS011;57876;47.792;12.960;2022-07-22T01:32:12;13.60;;;7.67;;
70433;SDS011;57876;47.792;12.960;2022-07-22T01:34:36;13.13;;;7.63;;
70433;SDS011;57876;47.792;12.960;2022-07-22T01:37:00;12.77;;;7.50;;
70433;SDS011;57876;47.792;12.960;2022-07-22T01:39:25;13.87;;;7.20;;
70433;SDS011;57876;47.792;12.960;2022-07-22T01:41:49;12.83;;;7.73;;
70433;SDS011;57876;47.792;12.960;2022-07-22T01:44:14;12.80;;;7.70;;
70433;SDS011;57876;47.792;12.960;2022-07-22T01:46:38;12.37;;;7.40;;
70433;SDS011;57876;47.792;12.960;2022-07-22T01:49:02;12.17;;;7.17;;
70433;SDS011;57876;47.792;12.960;2022-07-22T01:51:27;12.88;;;7.43;;
70433;SDS011;57876;47.792;12.960;2022-07-22T01:53:51;12.80;;;7.37;;
70433;SDS011;57876;47.792;12.960;2022-07-22T01:56:16;13.43;;;7.93;;
70433;SDS011;57876;47.792;12.960;2022-07-22T01:58:40;11.97;;;6.80;;
70433;SDS011;57876;47.792;12.960;2022-07-22T02:01:05;12.50;;;7.50;;
70433;SDS011;57876;47.792;12.960;2022-07-22T02:03:29;11.97;;;7.30;;
70433;SDS011;57876;47.792;12.960;2022-07-22T02:05:54;12.07;;;7.03;;
70433;SDS011;57876;47.792;12.960;2022-07-22T02:08:18;12.45;;;7.38;;
70433;SDS011;57876;47.792;12.960;2022-07-22T02:10:43;11.83;;;6.93;;
70433;SDS011;57876;47.792;12.960;2022-07-22T02:13:08;12.93;;;7.22;;
70433;SDS011;57876;47.792;12.960;2022-07-22T02:15:32;12.17;;;7.57;;
70433;SDS011;57876;47.792;12.960;2022-07-22T02:17:57;11.90;;;6.90;;
70433;SDS011;57876;47.792;12.960;2022-07-22T02:20:21;12.93;;;7.28;;
70433;SDS011;57876;47.792;12.960;2022-07-22T02:22:46;13.33;;;7.00;;
70433;SDS011;57876;47.792;12.960;2022-07-22T02:25:11;12.50;;;6.80;;
70433;SDS011;57876;47.792;12.960;2022-07-22T02:27:35;12.37;;;7.27;;
70433;SDS011;57876;47.792;12.960;2022-07-22T02:30:00;13.00;;;7.80;;
70433;SDS011;57876;47.792;12.960;2022-07-22T02:32:24;13.15;;;7.85;;
70433;SDS011;57876;47.792;12.960;2022-07-22T02:34:49;13.53;;;7.83;;
70433;SDS011;57876;47.792;12.960;2022-07-22T02:37:14;12.70;;;7.10;;
70433;SDS011;57876;47.792;12.960;2022-07-22T02:39:39;12.52;;;7.35;;
70433;SDS011;57876;47.792;12.960;2022-07-22T02:42:04;12.60;;;7.25;;
70433;SDS011;57876;47.792;12.960;2022-07-22T02:44:28;13.40;;;7.50;;
70433;SDS011;57876;47.792;12.960;2022-07-22T02:46:52;13.97;;;7.20;;
70433;SDS011;57876;47.792;12.960;2022-07-22T02:49:17;13.33;;;7.13;;
70433;SDS011;57876;47.792;12.960;2022-07-22T02:51:41;13.33;;;7.40;;
70433;SDS011;57876;47.792;12.960;2022-07-22T02:54:06;12.00;;;7.15;;
70433;SDS011;57876;47.792;12.960;2022-07-22T02:56:30;11.23;;;6.60;;
70433;SDS011;57876;47.792;12.960;2022-07-22T02:58:55;11.80;;;7.07;;
70433;SDS011;57876;47.792;12.960;2022-07-22T03:01:19;11.60;;;6.90;;
70433;SDS011;57876;47.792;12.960;2022-07-22T03:03:44;12.17;;;6.97;;
70433;SDS011;57876;47.792;12.960;2022-07-22T03:06:09;11.20;;;6.70;;
70433;SDS011;57876;47.792;12.960;2022-07-22T03:08:33;12.73;;;7.20;;
70433;SDS011;57876;47.792;12.960;2022-07-22T03:10:58;12.20;;;6.87;;
70433;SDS011;57876;47.792;12.960;2022-07-22T03:13:22;11.23;;;6.60;;
70433;SDS011;57876;47.792;12.960;2022-07-22T03:15:46;12.10;;;6.50;;
70433;SDS011;57876;47.792;12.960;2022-07-22T03:18:11;11.10;;;6.37;;
70433;SDS011;57876;47.792;12.960;2022-07-22T03:20:35;11.07;;;6.47;;
70433;SDS011;57876;47.792;12.960;2022-07-22T03:23:00;11.38;;;5.97;;
70433;SDS011;57876;47.792;12.960;2022-07-22T03:25:24;11.30;;;6.43;;
70433;SDS011;57876;47.792;12.960;2022-07-22T03:27:49;11.43;;;6.10;;
70433;SDS011;57876;47.792;12.960;2022-07-22T03:30:13;11.27;;;6.18;;
70433;SDS011;57876;47.792;12.960;2022-07-22T03:32:38;10.43;;;5.80;;
70433;SDS011;57876;47.792;12.960;2022-07-22T03:35:02;11.17;;;6.43;;
70433;SDS011;57876;47.792;12.960;2022-07-22T03:37:27;10.57;;;5.95;;
70433;SDS011;57876;47.792;12.960;2022-07-22T03:39:51;10.63;;;6.07;;
70433;SDS011;57876;47.792;12.960;2022-07-22T03:42:16;11.07;;;5.87;;
70433;SDS011;57876;47.792;12.960;2022-07-22T03:44:40;10.63;;;6.27;;
70433;SDS011;57876;47.792;12.960;2022-07-22T03:47:05;10.82;;;6.30;;
70433;SDS011;57876;47.792;12.960;2022-07-22T03:49:30;10.23;;;6.13;;
70433;SDS011;57876;47.792;12.960;2022-07-22T03:51:55;10.77;;;6.30;;
70433;SDS011;57876;47.792;12.960;2022-07-22T03:54:19;11.70;;;6.20;;
70433;SDS011;57876;47.792;12.960;2022-07-22T03:56:44;11.60;;;5.57;;
70433;SDS011;57876;47.792;12.960;2022-07-22T03:59:08;10.53;;;6.10;;
70433;SDS011;57876;47.792;12.960;2022-07-22T04:01:32;11.40;;;6.20;;
70433;SDS011;57876;47.792;12.960;2022-07-22T04:03:57;10.93;;;5.80;;
70433;SDS011;57876;47.792;12.960;2022-07-22T04:06:21;10.57;;;6.00;;
70433;SDS011;57876;47.792;12.960;2022-07-22T04:08:46;11.20;;;6.03;;
70433;SDS011;57876;47.792;12.960;2022-07-22T04:11:10;11.10;;;6.10;;
70433;SDS011;57876;47.792;12.960;2022-07-22T04:13:34;10.30;;;5.97;;
70433;SDS011;57876;47.792;12.960;2022-07-22T04:15:59;10.20;;;5.77;;
70433;SDS011;57876;47.792;12.960;2022-07-22T04:18:23;11.47;;;6.10;;
70433;SDS011;57876;47.792;12.960;2022-07-22T04:20:48;10.37;;;5.70;;
70433;SDS011;57876;47.792;12.960;2022-07-22T04:23:12;10.88;;;5.90;;
70433;SDS011;57876;47.792;12.960;2022-07-22T04:25:37;10.50;;;5.90;;
70433;SDS011;57876;47.792;12.960;2022-07-22T04:28:01;9.80;;;5.43;;
70433;SDS011;57876;47.792;12.960;2022-07-22T04:30:26;10.30;;;5.60;;
70433;SDS011;57876;47.792;12.960;2022-07-22T04:32:50;11.57;;;6.00;;
70433;SDS011;57876;47.792;12.960;2022-07-22T04:35:14;11.10;;;6.00;;
70433;SDS011;57876;47.792;12.960;2022-07-22T04:37:39;11.53;;;6.30;;
70433;SDS011;57876;47.792;12.960;2022-07-22T04:40:03;10.80;;;6.10;;
70433;SDS011;57876;47.792;12.960;2022-07-22T04:42:28;10.32;;;5.95;;
70433;SDS011;57876;47.792;12.960;2022-07-22T04:44:53;11.83;;;5.93;;
70433;SDS011;57876;47.792;12.960;2022-07-22T04:47:17;10.68;;;6.05;;
70433;SDS011;57876;47.792;12.960;2022-07-22T04:49:42;9.53;;;5.57;;
70433;SDS011;57876;47.792;12.960;2022-07-22T04:52:06;12.40;;;6.17;;
70433;SDS011;57876;47.792;12.960;2022-07-22T04:54:31;12.10;;;6.10;;
70433;SDS011;57876;47.792;12.960;2022-07-22T04:56:55;11.82;;;6.30;;
70433;SDS011;57876;47.792;12.960;2022-07-22T04:59:19;11.27;;;5.90;;
70433;SDS011;57876;47.792;12.960;2022-07-22T05:01:44;10.20;;;6.37;;
70433;SDS011;57876;47.792;12.960;2022-07-22T05:04:08;10.50;;;5.77;;
70433;SDS011;57876;47.792;12.960;2022-07-22T05:06:33;11.40;;;6.03;;
70433;SDS011;57876;47.792;12.960;2022-07-22T05:08:57;10.95;;;6.10;;
70433;SDS011;57876;47.792;12.960;2022-07-22T05:11:22;10.07;;;5.33;;
70433;SDS011;57876;47.792;12.960;2022-07-22T05:13:46;9.65;;;5.60;;
70433;SDS011;57876;47.792;12.960;2022-07-22T05:16:11;10.43;;;6.07;;
70433;SDS011;57876;47.792;12.960;2022-07-22T05:18:35;11.23;;;6.30;;
70433;SDS011;57876;47.792;12.960;2022-07-22T05:21:00;10.90;;;6.13;;
70433;SDS011;57876;47.792;12.960;2022-07-22T05:23:24;11.57;;;5.85;;
70433;SDS011;57876;47.792;12.960;2022-07-22T05:25:49;9.73;;;5.77;;
70433;SDS011;57876;47.792;12.960;2022-07-22T05:28:13;11.47;;;5.53;;
70433;SDS011;57876;47.792;12.960;2022-07-22T05:30:38;9.57;;;5.43;;
70433;SDS011;57876;47.792;12.960;2022-07-22T05:33:02;10.55;;;5.75;;
70433;SDS011;57876;47.792;12.960;2022-07-22T05:35:27;11.17;;;5.97;;
70433;SDS011;57876;47.792;12.960;2022-07-22T05:37:51;11.13;;;5.80;;
70433;SDS011;57876;47.792;12.960;2022-07-22T05:40:15;10.25;;;5.40;;
70433;SDS011;57876;47.792;12.960;2022-07-22T05:42:40;10.40;;;5.70;;
70433;SDS011;57876;47.792;12.960;2022-07-22T05:45:04;10.60;;;5.60;;
70433;SDS011;57876;47.792;12.960;2022-07-22T05:47:29;9.77;;;5.15;;
70433;SDS011;57876;47.792;12.960;2022-07-22T05:49:54;9.63;;;5.27;;
70433;SDS011;57876;47.792;12.960;2022-07-22T05:52:18;10.95;;;5.60;;
70433;SDS011;57876;47.792;12.960;2022-07-22T05:54:43;10.63;;;5.67;;
70433;SDS011;57876;47.792;12.960;2022-07-22T05:57:07;10.50;;;5.70;;
70433;SDS011;57876;47.792;12.960;2022-07-22T05:59:33;10.55;;;5.43;;
70433;SDS011;57876;47.792;12.960;2022-07-22T06:01:58;9.27;;;4.97;;
70433;SDS011;57876;47.792;12.960;2022-07-22T06:04:22;10.67;;;5.77;;
70433;SDS011;57876;47.792;12.960;2022-07-22T06:06:46;10.45;;;5.70;;
70433;SDS011;57876;47.792;12.960;2022-07-22T06:09:11;10.03;;;5.03;;
70433;SDS011;57876;47.792;12.960;2022-07-22T06:11:35;11.00;;;5.93;;
70433;SDS011;57876;47.792;12.960;2022-07-22T06:14:00;11.43;;;6.03;;
70433;SDS011;57876;47.792;12.960;2022-07-22T06:16:24;10.40;;;5.47;;
70433;SDS011;57876;47.792;12.960;2022-07-22T06:18:48;9.73;;;5.53;;
70433;SDS011;57876;47.792;12.960;2022-07-22T06:21:13;10.50;;;5.50;;
70433;SDS011;57876;47.792;12.960;2022-07-22T06:23:37;10.07;;;5.80;;
70433;SDS011;57876;47.792;12.960;2022-07-22T06:26:02;9.97;;;5.73;;
70433;SDS011;57876;47.792;12.960;2022-07-22T06:28:26;9.02;;;5.15;;
70433;SDS011;57876;47.792;12.960;2022-07-22T06:30:50;10.03;;;5.67;;
70433;SDS011;57876;47.792;12.960;2022-07-22T06:33:15;11.13;;;5.60;;
70433;SDS011;57876;47.792;12.960;2022-07-22T06:35:40;9.73;;;5.57;;
70433;SDS011;57876;47.792;12.960;2022-07-22T06:38:04;10.32;;;5.55;;
70433;SDS011;57876;47.792;12.960;2022-07-22T06:40:29;10.07;;;5.60;;
70433;SDS011;57876;47.792;12.960;2022-07-22T06:42:53;10.63;;;5.90;;
70433;SDS011;57876;47.792;12.960;2022-07-22T06:45:17;10.15;;;5.40;;
70433;SDS011;57876;47.792;12.960;2022-07-22T06:47:42;9.90;;;5.17;;
70433;SDS011;57876;47.792;12.960;2022-07-22T06:50:07;11.00;;;5.23;;
70433;SDS011;57876;47.792;12.960;2022-07-22T06:52:32;11.38;;;5.38;;
70433;SDS011;57876;47.792;12.960;2022-07-22T06:54:57;10.20;;;5.57;;
70433;SDS011;57876;47.792;12.960;2022-07-22T06:57:21;10.18;;;5.40;;
70433;SDS011;57876;47.792;12.960;2022-07-22T06:59:45;10.10;;;5.57;;
70433;SDS011;57876;47.792;12.960;2022-07-22T07:02:10;10.13;;;5.00;;
70433;SDS011;57876;47.792;12.960;2022-07-22T07:04:34;10.60;;;5.80;;
70433;SDS011;57876;47.792;12.960;2022-07-22T07:06:59;9.35;;;5.05;;
70433;SDS011;57876;47.792;12.960;2022-07-22T07:09:23;9.20;;;5.20;;
70433;SDS011;57876;47.792;12.960;2022-07-22T07:11:48;11.80;;;5.57;;
70433;SDS011;57876;47.792;12.960;2022-07-22T07:14:12;8.53;;;5.00;;
70433;SDS011;57876;47.792;12.960;2022-07-22T07:16:36;9.70;;;4.80;;
70433;SDS011;57876;47.792;12.960;2022-07-22T07:19:01;9.90;;;5.10;;
70433;SDS011;57876;47.792;12.960;2022-07-22T07:21:25;9.83;;;4.93;;
70433;SDS011;57876;47.792;12.960;2022-07-22T07:23:50;9.87;;;5.03;;
70433;SDS011;57876;47.792;12.960;2022-07-22T07:26:14;10.80;;;5.75;;
70433;SDS011;57876;47.792;12.960;2022-07-22T07:28:39;10.13;;;5.53;;
70433;SDS011;57876;47.792;12.960;2022-07-22T07:31:04;10.38;;;5.20;;
70433;SDS011;57876;47.792;12.960;2022-07-22T07:33:29;9.33;;;5.03;;
70433;SDS011;57876;47.792;12.960;2022-07-22T07:35:53;9.43;;;4.73;;
70433;SDS011;57876;47.792;12.960;2022-07-22T07:38:18;9.85;;;5.30;;
70433;SDS011;57876;47.792;12.960;2022-07-22T07:40:42;9.77;;;5.30;;
70433;SDS011;57876;47.792;12.960;2022-07-22T07:43:06;9.13;;;5.00;;
70433;SDS011;57876;47.792;12.960;2022-07-22T07:45:31;9.30;;;4.97;;
70433;SDS011;57876;47.792;12.960;2022-07-22T07:47:56;9.13;;;4.93;;
70433;SDS011;57876;47.792;12.960;2022-07-22T07:50:21;8.57;;;4.78;;
70433;SDS011;57876;47.792;12.960;2022-07-22T07:52:45;10.27;;;5.43;;
70433;SDS011;57876;47.792;12.960;2022-07-22T07:55:13;10.32;;;5.50;;
70433;SDS011;57876;47.792;12.960;2022-07-22T07:57:37;10.13;;;5.17;;
70433;SDS011;57876;47.792;12.960;2022-07-22T08:00:03;9.60;;;5.00;;
70433;SDS011;57876;47.792;12.960;2022-07-22T08:02:30;9.93;;;5.25;;
70433;SDS011;57876;47.792;12.960;2022-07-22T08:04:55;9.30;;;5.13;;
70433;SDS011;57876;47.792;12.960;2022-07-22T08:07:19;9.63;;;5.00;;
70433;SDS011;57876;47.792;12.960;2022-07-22T08:09:44;9.83;;;4.77;;
70433;SDS011;57876;47.792;12.960;2022-07-22T08:12:08;9.25;;;4.88;;
70433;SDS011;57876;47.792;12.960;2022-07-22T08:14:33;8.60;;;4.77;;
70433;SDS011;57876;47.792;12.960;2022-07-22T08:16:58;9.10;;;4.90;;
70433;SDS011;57876;47.792;12.960;2022-07-22T08:19:23;9.10;;;5.10;;
70433;SDS011;57876;47.792;12.960;2022-07-22T08:21:47;9.27;;;4.60;;
70433;SDS011;57876;47.792;12.960;2022-07-22T08:24:11;9.10;;;5.07;;
70433;SDS011;57876;47.792;12.960;2022-07-22T08:26:36;9.13;;;4.77;;
70433;SDS011;57876;47.792;12.960;2022-07-22T08:29:00;9.20;;;4.73;;
70433;SDS011;57876;47.792;12.960;2022-07-22T08:31:26;9.43;;;4.78;;
70433;SDS011;57876;47.792;12.960;2022-07-22T08:33:51;8.68;;;4.60;;
70433;SDS011;57876;47.792;12.960;2022-07-22T08:36:16;8.53;;;4.70;;
70433;SDS011;57876;47.792;12.960;2022-07-22T08:38:40;9.13;;;4.63;;
70433;SDS011;57876;47.792;12.960;2022-07-22T08:41:04;8.53;;;4.50;;
70433;SDS011;57876;47.792;12.960;2022-07-22T08:43:29;9.27;;;4.60;;
70433;SDS011;57876;47.792;12.960;2022-07-22T08:45:58;8.80;;;4.63;;
70433;SDS011;57876;47.792;12.960;2022-07-22T08:48:22;8.93;;;4.70;;
70433;SDS011;57876;47.792;12.960;2022-07-22T08:50:47;9.20;;;4.70;;
70433;SDS011;57876;47.792;12.960;2022-07-22T08:53:11;9.47;;;4.73;;
70433;SDS011;57876;47.792;12.960;2022-07-22T08:55:41;9.93;;;4.70;;
70433;SDS011;57876;47.792;12.960;2022-07-22T08:58:08;9.48;;;4.53;;
70433;SDS011;57876;47.792;12.960;2022-07-22T09:00:33;8.73;;;4.43;;
70433;SDS011;57876;47.792;12.960;2022-07-22T09:02:58;8.53;;;4.40;;
70433;SDS011;57876;47.792;12.960;2022-07-22T09:05:22;8.77;;;4.77;;
70433;SDS011;57876;47.792;12.960;2022-07-22T09:07:47;8.90;;;4.87;;
70433;SDS011;57876;47.792;12.960;2022-07-22T09:10:13;9.90;;;4.70;;
70433;SDS011;57876;47.792;12.960;2022-07-22T09:16:01;9.85;;;4.60;;
70433;SDS011;57876;47.792;12.960;2022-07-22T09:18:25;9.30;;;5.03;;
70433;SDS011;57876;47.792;12.960;2022-07-22T09:20:49;8.97;;;4.90;;
70433;SDS011;57876;47.792;12.960;2022-07-22T09:23:22;8.80;;;4.78;;
70433;SDS011;57876;47.792;12.960;2022-07-22T09:25:48;9.20;;;5.13;;
70433;SDS011;57876;47.792;12.960;2022-07-22T09:28:14;8.57;;;4.60;;
70433;SDS011;57876;47.792;12.960;2022-07-22T09:30:50;9.35;;;4.90;;
70433;SDS011;57876;47.792;12.960;2022-07-22T09:33:17;9.40;;;4.90;;
70433;SDS011;57876;47.792;12.960;2022-07-22T09:35:43;8.02;;;4.22;;
70433;SDS011;57876;47.792;12.960;2022-07-22T09:38:09;8.50;;;4.83;;
70433;SDS011;57876;47.792;12.960;2022-07-22T09:40:35;8.63;;;4.75;;
70433;SDS011;57876;47.792;12.960;2022-07-22T09:43:05;9.40;;;4.75;;
70433;SDS011;57876;47.792;12.960;2022-07-22T09:45:35;8.20;;;4.53;;
70433;SDS011;57876;47.792;12.960;2022-07-22T09:48:00;8.37;;;4.60;;
70433;SDS011;57876;47.792;12.960;2022-07-22T09:50:26;8.32;;;4.65;;
70433;SDS011;57876;47.792;12.960;2022-07-22T09:52:53;8.35;;;4.60;;
70433;SDS011;57876;47.792;12.960;2022-07-22T09:55:20;9.55;;;5.25;;
70433;SDS011;57876;47.792;12.960;2022-07-22T09:57:45;8.35;;;4.57;;
70433;SDS011;57876;47.792;12.960;2022-07-22T10:00:11;10.03;;;4.80;;
70433;SDS011;57876;47.792;12.960;2022-07-22T10:05:22;8.60;;;4.53;;
70433;SDS011;57876;47.792;12.960;2022-07-22T10:07:49;9.10;;;4.63;;
70433;SDS011;57876;47.792;12.960;2022-07-22T10:10:15;8.82;;;4.47;;
70433;SDS011;57876;47.792;12.960;2022-07-22T10:12:41;8.63;;;4.80;;
70433;SDS011;57876;47.792;12.960;2022-07-22T10:15:07;8.52;;;4.65;;
70433;SDS011;57876;47.792;12.960;2022-07-22T10:17:32;8.63;;;4.60;;
70433;SDS011;57876;47.792;12.960;2022-07-22T10:19:58;9.35;;;4.95;;
70433;SDS011;57876;47.792;12.960;2022-07-22T10:25:06;9.48;;;4.93;;
70433;SDS011;57876;47.792;12.960;2022-07-22T10:30:08;9.60;;;5.00;;
70433;SDS011;57876;47.792;12.960;2022-07-22T10:32:33;8.85;;;4.50;;
70433;SDS011;57876;47.792;12.960;2022-07-22T10:43:12;9.00;;;5.20;;
70433;SDS011;57876;47.792;12.960;2022-07-22T10:48:09;9.32;;;5.05;;
70433;SDS011;57876;47.792;12.960;2022-07-22T10:53:02;8.87;;;4.70;;
70433;SDS011;57876;47.792;12.960;2022-07-22T10:55:32;9.70;;;4.90;;
70433;SDS011;57876;47.792;12.960;2022-07-22T10:57:57;8.85;;;4.60;;
70433;SDS011;57876;47.792;12.960;2022-07-22T11:00:21;9.60;;;4.90;;
70433;SDS011;57876;47.792;12.960;2022-07-22T11:02:46;9.07;;;4.93;;
70433;SDS011;57876;47.792;12.960;2022-07-22T11:05:11;9.67;;;5.20;;
70433;SDS011;57876;47.792;12.960;2022-07-22T11:07:45;8.80;;;4.78;;
70433;SDS011;57876;47.792;12.960;2022-07-22T11:10:14;10.97;;;5.20;;
70433;SDS011;57876;47.792;12.960;2022-07-22T11:12:44;9.57;;;4.82;;
70433;SDS011;57876;47.792;12.960;2022-07-22T11:15:09;9.57;;;5.40;;
70433;SDS011;57876;47.792;12.960;2022-07-22T11:17:34;11.27;;;5.10;;
70433;SDS011;57876;47.792;12.960;2022-07-22T11:19:59;9.82;;;5.13;;
70433;SDS011;57876;47.792;12.960;2022-07-22T11:22:24;9.43;;;5.00;;
70433;SDS011;57876;47.792;12.960;2022-07-22T11:24:48;9.48;;;5.05;;
70433;SDS011;57876;47.792;12.960;2022-07-22T11:27:14;9.40;;;4.80;;
70433;SDS011;57876;47.792;12.960;2022-07-22T11:29:40;9.25;;;5.03;;
70433;SDS011;57876;47.792;12.960;2022-07-22T11:32:09;8.93;;;4.90;;
70433;SDS011;57876;47.792;12.960;2022-07-22T11:34:36;10.20;;;5.30;;
70433;SDS011;57876;47.792;12.960;2022-07-22T11:37:01;9.93;;;5.20;;
70433;SDS011;57876;47.792;12.960;2022-07-22T11:39:26;9.33;;;4.90;;
70433;SDS011;57876;47.792;12.960;2022-07-22T11:41:52;9.35;;;5.50;;
70433;SDS011;57876;47.792;12.960;2022-07-22T11:44:26;9.30;;;5.13;;
70433;SDS011;57876;47.792;12.960;2022-07-22T11:46:53;10.63;;;5.67;;
70433;SDS011;57876;47.792;12.960;2022-07-22T11:49:22;10.23;;;5.00;;
70433;SDS011;57876;47.792;12.960;2022-07-22T11:51:46;9.23;;;5.20;;
70433;SDS011;57876;47.792;12.960;2022-07-22T11:54:11;10.75;;;5.38;;
70433;SDS011;57876;47.792;12.960;2022-07-22T11:56:36;10.52;;;5.63;;
70433;SDS011;57876;47.792;12.960;2022-07-22T11:59:01;9.50;;;5.00;;
70433;SDS011;57876;47.792;12.960;2022-07-22T12:01:29;9.13;;;5.00;;
70433;SDS011;57876;47.792;12.960;2022-07-22T12:03:58;10.57;;;5.30;;
70433;SDS011;57876;47.792;12.960;2022-07-22T12:06:24;8.70;;;4.90;;
70433;SDS011;57876;47.792;12.960;2022-07-22T12:08:51;9.85;;;5.40;;
70433;SDS011;57876;47.792;12.960;2022-07-22T12:11:20;9.52;;;5.25;;
70433;SDS011;57876;47.792;12.960;2022-07-22T12:13:47;9.60;;;5.30;;
70433;SDS011;57876;47.792;12.960;2022-07-22T12:16:16;8.97;;;4.90;;
70433;SDS011;57876;47.792;12.960;2022-07-22T12:18:56;9.15;;;4.93;;
70433;SDS011;57876;47.792;12.960;2022-07-22T12:21:23;9.45;;;5.20;;
70433;SDS011;57876;47.792;12.960;2022-07-22T12:26:16;10.60;;;5.20;;
70433;SDS011;57876;47.792;12.960;2022-07-22T12:28:41;10.37;;;4.83;;
70433;SDS011;57876;47.792;12.960;2022-07-22T12:31:05;9.27;;;5.30;;
70433;SDS011;57876;47.792;12.960;2022-07-22T12:33:30;9.47;;;5.00;;
70433;SDS011;57876;47.792;12.960;2022-07-22T12:36:04;9.20;;;5.03;;
70433;SDS011;57876;47.792;12.960;2022-07-22T12:38:30;10.75;;;5.53;;
70433;SDS011;57876;47.792;12.960;2022-07-22T12:40:55;9.43;;;5.30;;
70433;SDS011;57876;47.792;12.960;2022-07-22T12:43:23;9.20;;;4.80;;
70433;SDS011;57876;47.792;12.960;2022-07-22T12:45:49;9.13;;;5.10;;
70433;SDS011;57876;47.792;12.960;2022-07-22T12:48:13;8.60;;;4.77;;
70433;SDS011;57876;47.792;12.960;2022-07-22T12:50:39;10.03;;;5.07;;
70433;SDS011;57876;47.792;12.960;2022-07-22T12:53:08;9.00;;;4.88;;
70433;SDS011;57876;47.792;12.960;2022-07-22T12:55:41;8.77;;;4.70;;
70433;SDS011;57876;47.792;12.960;2022-07-22T12:58:08;9.77;;;5.20;;
70433;SDS011;57876;47.792;12.960;2022-07-22T13:00:37;9.27;;;4.85;;
70433;SDS011;57876;47.792;12.960;2022-07-22T13:03:04;9.13;;;4.75;;
70433;SDS011;57876;47.792;12.960;2022-07-22T13:05:29;9.80;;;4.90;;
70433;SDS011;57876;47.792;12.960;2022-07-22T13:07:54;9.45;;;5.40;;
70433;SDS011;57876;47.792;12.960;2022-07-22T13:10:19;9.15;;;4.88;;
70433;SDS011;57876;47.792;12.960;2022-07-22T13:12:45;9.02;;;4.75;;
70433;SDS011;57876;47.792;12.960;2022-07-22T13:15:09;8.43;;;4.50;;
70433;SDS011;57876;47.792;12.960;2022-07-22T13:17:34;9.40;;;5.40;;
70433;SDS011;57876;47.792;12.960;2022-07-22T13:19:59;9.07;;;5.13;;
70433;SDS011;57876;47.792;12.960;2022-07-22T13:22:24;9.27;;;4.97;;
70433;SDS011;57876;47.792;12.960;2022-07-22T13:24:48;8.70;;;4.67;;
70433;SDS011;57876;47.792;12.960;2022-07-22T13:27:12;9.57;;;4.93;;
70433;SDS011;57876;47.792;12.960;2022-07-22T13:29:37;9.03;;;5.23;;
70433;SDS011;57876;47.792;12.960;2022-07-22T13:32:02;9.07;;;4.85;;
70433;SDS011;57876;47.792;12.960;2022-07-22T13:34:27;9.25;;;5.30;;
70433;SDS011;57876;47.792;12.960;2022-07-22T13:36:51;8.27;;;4.67;;
70433;SDS011;57876;47.792;12.960;2022-07-22T13:39:16;9.07;;;5.07;;
70433;SDS011;57876;47.792;12.960;2022-07-22T13:41:40;8.70;;;4.90;;
70433;SDS011;57876;47.792;12.960;2022-07-22T13:44:05;9.67;;;5.33;;
70433;SDS011;57876;47.792;12.960;2022-07-22T13:46:35;9.02;;;5.03;;
70433;SDS011;57876;47.792;12.960;2022-07-22T13:49:00;9.97;;;5.27;;
70433;SDS011;57876;47.792;12.960;2022-07-22T13:51:24;9.57;;;5.25;;
70433;SDS011;57876;47.792;12.960;2022-07-22T13:53:49;8.90;;;5.00;;
70433;SDS011;57876;47.792;12.960;2022-07-22T13:56:13;9.70;;;5.00;;
70433;SDS011;57876;47.792;12.960;2022-07-22T13:58:38;9.87;;;5.60;;
70433;SDS011;57876;47.792;12.960;2022-07-22T14:01:03;9.10;;;4.80;;
70433;SDS011;57876;47.792;12.960;2022-07-22T14:03:30;9.00;;;4.82;;
70433;SDS011;57876;47.792;12.960;2022-07-22T14:05:55;8.90;;;4.57;;
70433;SDS011;57876;47.792;12.960;2022-07-22T14:08:19;9.37;;;5.00;;
70433;SDS011;57876;47.792;12.960;2022-07-22T14:10:43;9.05;;;4.85;;
70433;SDS011;57876;47.792;12.960;2022-07-22T14:13:08;8.73;;;4.60;;
70433;SDS011;57876;47.792;12.960;2022-07-22T14:15:33;8.88;;;4.85;;
70433;SDS011;57876;47.792;12.960;2022-07-22T14:17:57;9.30;;;5.20;;
70433;SDS011;57876;47.792;12.960;2022-07-22T14:20:22;9.00;;;4.90;;
70433;SDS011;57876;47.792;12.960;2022-07-22T14:22:46;10.40;;;4.70;;
70433;SDS011;57876;47.792;12.960;2022-07-22T14:25:10;8.10;;;4.57;;
70433;SDS011;57876;47.792;12.960;2022-07-22T14:27:35;8.70;;;4.87;;
70433;SDS011;57876;47.792;12.960;2022-07-22T14:29:59;8.27;;;4.50;;
70433;SDS011;57876;47.792;12.960;2022-07-22T14:32:24;8.70;;;4.83;;
70433;SDS011;57876;47.792;12.960;2022-07-22T14:34:48;8.80;;;4.87;;
70433;SDS011;57876;47.792;12.960;2022-07-22T14:37:12;9.63;;;5.22;;
70433;SDS011;57876;47.792;12.960;2022-07-22T14:39:37;9.00;;;5.27;;
70433;SDS011;57876;47.792;12.960;2022-07-22T14:42:01;9.30;;;4.73;;
70433;SDS011;57876;47.792;12.960;2022-07-22T14:44:26;9.20;;;4.87;;